createdAt,value
2023-05-05T00:00:16.376Z,42.5
2023-05-05T00:05:16.353Z,42.6
2023-05-05T00:10:16.445Z,42.6
2023-05-05T00:15:16.397Z,42.6
2023-05-05T00:20:16.409Z,42.7
2023-05-05T00:25:16.451Z,42.7
2023-05-05T00:30:16.510Z,42.8
2023-05-05T00:35:16.396Z,42.8
2023-05-05T00:40:16.757Z,42.9
2023-05-05T00:45:16.444Z,43.2
2023-05-05T00:50:16.445Z,43.2
2023-05-05T00:55:16.463Z,43.0
2023-05-05T01:00:16.934Z,42.1
2023-05-05T01:05:16.498Z,42.1
2023-05-05T01:10:20.440Z,42.5
2023-05-05T01:15:16.498Z,42.6
2023-05-05T01:20:16.525Z,42.7
2023-05-05T01:25:16.553Z,42.6
2023-05-05T01:30:16.546Z,42.5
2023-05-05T01:35:16.704Z,42.5
2023-05-05T01:40:16.659Z,43.0
2023-05-05T01:45:16.574Z,43.0
2023-05-05T01:50:16.614Z,43.0
2023-05-05T01:55:16.678Z,43.3
2023-05-05T02:00:16.605Z,43.2
2023-05-05T02:05:16.722Z,43.2
2023-05-05T02:10:16.651Z,43.4
2023-05-05T02:15:16.699Z,43.3
2023-05-05T02:20:16.690Z,43.4
2023-05-05T02:25:16.855Z,43.4
2023-05-05T02:30:16.629Z,43.4
2023-05-05T02:35:16.647Z,43.7
2023-05-05T02:40:16.722Z,43.7
2023-05-05T02:45:16.672Z,43.7
2023-05-05T02:50:16.691Z,43.8
2023-05-05T02:55:16.823Z,43.9
2023-05-05T03:00:16.707Z,43.9
2023-05-05T03:05:16.747Z,43.9
2023-05-05T03:10:16.704Z,44.1
2023-05-05T03:15:16.839Z,43.9
2023-05-05T03:20:16.718Z,44.1
2023-05-05T03:25:16.817Z,44.1
2023-05-05T03:30:16.901Z,44.2
2023-05-05T03:35:16.712Z,44.4
2023-05-05T03:40:17.734Z,44.7
2023-05-05T03:45:16.798Z,44.6
2023-05-05T03:50:16.940Z,44.9
2023-05-05T03:55:16.996Z,44.8
2023-05-05T04:00:15.965Z,44.6
2023-05-05T04:05:16.195Z,44.8
2023-05-05T04:10:15.875Z,44.8
2023-05-05T04:15:15.960Z,44.8
2023-05-05T04:20:15.906Z,44.8
2023-05-05T04:25:15.937Z,44.8
2023-05-05T04:30:15.842Z,44.7
2023-05-05T04:35:15.921Z,44.8
2023-05-05T04:40:16.043Z,44.8
2023-05-05T04:45:16.129Z,44.8
2023-05-05T04:50:16.161Z,44.9
2023-05-05T04:55:15.893Z,44.9
2023-05-05T05:00:16.118Z,44.9
2023-05-05T05:05:16.028Z,44.9
2023-05-05T05:10:16.117Z,45.0
2023-05-05T05:15:16.085Z,44.9
2023-05-05T05:20:15.979Z,44.9
2023-05-05T05:25:16.032Z,45.0
2023-05-05T05:30:16.034Z,45.1
2023-05-05T05:35:16.066Z,45.1
2023-05-05T05:40:16.063Z,45.1
2023-05-05T05:45:16.173Z,44.9
2023-05-05T05:50:16.088Z,45.0
2023-05-05T05:55:16.055Z,45.0
2023-05-05T06:00:16.123Z,45.0
2023-05-05T06:05:16.117Z,45.0
2023-05-05T06:10:27.612Z,45.1
2023-05-05T06:15:16.242Z,45.0
2023-05-05T06:20:16.051Z,45.1
2023-05-05T06:25:16.130Z,44.9
2023-05-05T06:30:16.165Z,44.6
2023-05-05T06:35:16.106Z,44.4
2023-05-05T06:40:16.176Z,44.5
2023-05-05T06:45:16.342Z,44.5
2023-05-05T06:50:16.154Z,44.3
2023-05-05T06:55:16.172Z,44.2
2023-05-05T07:00:16.232Z,44.1
2023-05-05T07:05:16.235Z,44.1
2023-05-05T07:10:16.216Z,44.0
2023-05-05T07:15:26.589Z,43.9
2023-05-05T07:20:16.366Z,43.9
2023-05-05T07:25:16.538Z,43.9
2023-05-05T07:30:18.372Z,43.9
2023-05-05T07:35:16.367Z,43.9
2023-05-05T07:40:16.285Z,44.0
2023-05-05T07:45:16.313Z,44.0
2023-05-05T07:50:16.303Z,44.1
2023-05-05T07:55:16.324Z,44.1
2023-05-05T08:00:16.326Z,44.0
2023-05-05T08:05:16.588Z,44.0
2023-05-05T08:10:16.371Z,44.0
2023-05-05T08:15:16.409Z,44.0
2023-05-05T08:20:16.356Z,44.0
2023-05-05T08:25:16.698Z,44.0
2023-05-05T08:30:16.461Z,44.1
2023-05-05T08:35:16.549Z,44.1
2023-05-05T08:40:16.394Z,44.1
2023-05-05T08:45:16.408Z,44.0
2023-05-05T08:50:16.363Z,43.8
2023-05-05T08:55:16.542Z,43.8
2023-05-05T09:00:16.425Z,43.6
2023-05-05T09:05:16.430Z,43.9
2023-05-05T09:10:16.439Z,43.7
2023-05-05T09:15:16.419Z,43.1
2023-05-05T09:20:16.472Z,43.4
2023-05-05T09:25:16.593Z,43.4
2023-05-05T09:30:16.482Z,43.4
2023-05-05T09:35:16.453Z,43.4
2023-05-05T09:40:16.785Z,43.4
2023-05-05T09:45:16.614Z,43.4
2023-05-05T09:50:16.485Z,43.6
2023-05-05T09:55:16.563Z,43.6
2023-05-05T10:00:16.838Z,43.7
2023-05-05T10:05:16.585Z,43.8
2023-05-05T10:10:16.899Z,43.9
2023-05-05T10:15:16.651Z,43.7
2023-05-05T10:20:16.682Z,43.8
2023-05-05T10:25:16.721Z,44.2
2023-05-05T10:30:16.721Z,44.0
2023-05-05T10:35:16.584Z,44.1
2023-05-05T10:40:16.660Z,44.2
2023-05-05T10:45:16.772Z,44.2
2023-05-05T10:50:16.699Z,44.2
2023-05-05T10:55:16.696Z,44.2
2023-05-05T11:00:16.735Z,44.3
2023-05-05T11:05:16.863Z,44.3
2023-05-05T11:10:16.709Z,44.4
2023-05-05T11:15:16.824Z,44.4
2023-05-05T11:20:16.728Z,44.6
2023-05-05T11:25:16.679Z,44.3
2023-05-05T11:30:16.673Z,44.3
2023-05-05T11:35:16.750Z,44.6
2023-05-05T11:40:16.952Z,44.6
2023-05-05T11:45:16.902Z,44.7
2023-05-05T11:50:16.744Z,44.7
2023-05-05T11:55:16.894Z,44.8
2023-05-05T12:00:17.002Z,44.4
2023-05-05T12:05:16.952Z,44.5
2023-05-05T12:10:16.751Z,44.5
2023-05-05T12:15:16.824Z,44.6
2023-05-05T12:20:17.771Z,44.2
2023-05-05T12:25:16.823Z,44.1
2023-05-05T12:30:16.967Z,43.9
2023-05-05T12:35:16.850Z,43.8
2023-05-05T12:40:16.844Z,43.5
2023-05-05T12:45:16.962Z,43.7
2023-05-05T12:50:16.889Z,43.4
2023-05-05T12:55:16.940Z,44.0
2023-05-05T13:00:16.930Z,44.0
2023-05-05T13:05:16.888Z,44.0
2023-05-05T13:10:17.003Z,44.0
2023-05-05T13:15:17.020Z,44.0
2023-05-05T13:20:16.969Z,44.1
2023-05-05T13:25:17.081Z,43.6
2023-05-05T13:30:16.996Z,44.3
2023-05-05T13:35:17.125Z,44.2
2023-05-05T13:40:17.019Z,44.0
2023-05-05T13:45:17.101Z,44.3
2023-05-05T13:50:17.020Z,44.4
2023-05-05T13:55:17.033Z,44.7
2023-05-05T14:00:17.080Z,44.9
2023-05-05T14:05:17.048Z,44.9
2023-05-05T14:10:17.002Z,44.9
2023-05-05T14:15:17.219Z,44.8
2023-05-05T14:20:17.525Z,44.6
2023-05-05T14:25:17.307Z,45.1
2023-05-05T14:30:17.157Z,45.1
2023-05-05T14:35:17.147Z,44.8
2023-05-05T14:40:17.293Z,44.8
2023-05-05T14:45:17.260Z,44.4
2023-05-05T14:50:17.198Z,44.3
2023-05-05T14:55:17.193Z,44.7
2023-05-05T15:00:17.156Z,44.7
2023-05-05T15:05:17.285Z,44.7
2023-05-05T15:10:18.624Z,44.0
2023-05-05T15:15:17.229Z,43.9
2023-05-05T15:20:17.311Z,44.1
2023-05-05T15:25:17.227Z,43.4
2023-05-05T15:30:17.418Z,43.7
2023-05-05T15:35:17.352Z,43.2
2023-05-05T15:40:17.242Z,43.6
2023-05-05T15:45:17.235Z,43.2
2023-05-05T15:50:17.298Z,42.4
2023-05-05T15:55:17.397Z,43.4
2023-05-05T16:00:17.275Z,43.1
2023-05-05T16:05:17.265Z,43.2
2023-05-05T16:10:17.294Z,42.4
2023-05-05T16:15:17.378Z,42.6
2023-05-05T16:20:17.354Z,42.8
2023-05-05T16:25:17.380Z,43.0
2023-05-05T16:30:17.375Z,42.8
2023-05-05T16:35:17.429Z,42.8
2023-05-05T16:40:17.341Z,43.5
2023-05-05T16:45:17.476Z,43.2
2023-05-05T16:50:17.395Z,42.2
2023-05-05T16:55:17.550Z,42.4
2023-05-05T17:00:17.459Z,43.1
2023-05-05T17:05:15.470Z,43.6
2023-05-05T17:10:15.432Z,43.4
2023-05-05T17:15:15.457Z,43.7
2023-05-05T17:20:15.390Z,43.5
2023-05-05T17:25:15.519Z,43.6
2023-05-05T17:30:15.627Z,43.6
2023-05-05T17:35:15.608Z,43.7
2023-05-05T17:40:15.590Z,43.9
2023-05-05T17:45:15.472Z,43.4
2023-05-05T17:50:15.574Z,43.7
2023-05-05T17:55:15.544Z,43.8
2023-05-05T18:00:15.702Z,43.5
2023-05-05T18:05:15.526Z,43.4
2023-05-05T18:10:15.515Z,44.2
2023-05-05T18:15:15.492Z,43.7
2023-05-05T18:20:15.532Z,43.6
2023-05-05T18:25:15.564Z,43.0
2023-05-05T18:30:15.680Z,43.1
2023-05-05T18:35:15.787Z,42.2
2023-05-05T18:40:15.637Z,41.9
2023-05-05T18:45:15.601Z,42.7
2023-05-05T18:50:15.821Z,41.5
2023-05-05T18:55:15.679Z,40.1
2023-05-05T19:00:15.587Z,39.7
2023-05-05T19:05:15.600Z,39.2
2023-05-05T19:10:15.614Z,38.6
2023-05-05T19:15:16.003Z,39.9
2023-05-05T19:20:15.798Z,38.7
2023-05-05T19:25:15.664Z,39.3
2023-05-05T19:30:15.661Z,39.6
2023-05-05T19:35:15.658Z,39.6
2023-05-05T19:40:15.694Z,38.6
2023-05-05T19:45:15.716Z,40.2
2023-05-05T19:50:15.660Z,40.1
2023-05-05T19:55:15.818Z,40.3
2023-05-05T20:00:15.675Z,40.0
2023-05-05T20:05:15.819Z,40.1
2023-05-05T20:10:15.905Z,39.6
2023-05-05T20:15:15.741Z,39.9
2023-05-05T20:20:15.992Z,39.4
2023-05-05T20:25:16.361Z,39.5
2023-05-05T20:30:15.882Z,40.3
2023-05-05T20:35:15.885Z,39.5
2023-05-05T20:40:15.862Z,40.3
2023-05-05T20:45:15.936Z,40.3
2023-05-05T20:50:15.896Z,37.5
2023-05-05T20:55:15.995Z,40.0
2023-05-05T21:00:15.899Z,38.6
2023-05-05T21:05:15.897Z,39.5
2023-05-05T21:10:15.896Z,40.4
2023-05-05T21:15:16.276Z,41.1
2023-05-05T21:20:16.009Z,42.4
2023-05-05T21:25:16.157Z,43.1
2023-05-05T21:30:16.476Z,42.3
2023-05-05T21:35:15.977Z,41.8
2023-05-05T21:40:16.099Z,41.6
2023-05-05T21:45:15.961Z,41.2
2023-05-05T21:50:15.936Z,40.9
2023-05-05T21:55:16.025Z,40.8
2023-05-05T22:00:16.090Z,40.7
2023-05-05T22:05:16.085Z,40.9
2023-05-05T22:10:15.968Z,41.0
2023-05-05T22:15:16.329Z,41.1
2023-05-05T22:20:16.111Z,41.0
2023-05-05T22:25:16.169Z,40.4
2023-05-05T22:30:16.054Z,41.0
2023-05-05T22:35:16.116Z,40.6
2023-05-05T22:40:16.232Z,40.4
2023-05-05T22:45:16.134Z,41.0
2023-05-05T22:50:16.181Z,40.5
2023-05-05T22:55:16.128Z,41.4
2023-05-05T23:00:16.208Z,41.4
2023-05-05T23:05:16.157Z,41.4
2023-05-05T23:10:16.162Z,41.0
2023-05-05T23:15:16.120Z,40.9
2023-05-05T23:20:16.176Z,40.9
2023-05-05T23:25:16.142Z,40.7
2023-05-05T23:30:16.234Z,40.9
2023-05-05T23:35:16.232Z,41.6
2023-05-05T23:40:16.180Z,41.5
2023-05-05T23:45:18.652Z,41.0
2023-05-05T23:50:16.258Z,40.8
2023-05-05T23:55:16.781Z,41.1
